sensor_id;sensor_type;location;lat;lon;timestamp;P1;durP1;ratioP1;P2;durP2;ratioP2
18752;SDS011;9505;50.882;5.350;2024-03-25T00:01:25;16.70;;;5.20;;
18752;SDS011;9505;50.882;5.350;2024-03-25T00:03:51;25.95;;;5.63;;
18752;SDS011;9505;50.882;5.350;2024-03-25T00:06:16;23.55;;;5.55;;
18752;SDS011;9505;50.882;5.350;2024-03-25T00:08:42;18.52;;;5.07;;
18752;SDS011;9505;50.882;5.350;2024-03-25T00:11:07;29.58;;;5.72;;
18752;SDS011;9505;50.882;5.350;2024-03-25T00:13:33;27.25;;;6.13;;
18752;SDS011;9505;50.882;5.350;2024-03-25T00:15:59;30.35;;;6.10;;
18752;SDS011;9505;50.882;5.350;2024-03-25T00:18:25;22.90;;;5.18;;
18752;SDS011;9505;50.882;5.350;2024-03-25T00:20:50;25.50;;;6.05;;
18752;SDS011;9505;50.882;5.350;2024-03-25T00:23:16;39.90;;;6.90;;
18752;SDS011;9505;50.882;5.350;2024-03-25T00:25:42;25.30;;;5.53;;
18752;SDS011;9505;50.882;5.350;2024-03-25T00:28:08;25.67;;;6.05;;
18752;SDS011;9505;50.882;5.350;2024-03-25T00:30:33;17.77;;;5.72;;
18752;SDS011;9505;50.882;5.350;2024-03-25T00:32:59;23.85;;;6.13;;
18752;SDS011;9505;50.882;5.350;2024-03-25T00:35:25;26.75;;;5.10;;
18752;SDS011;9505;50.882;5.350;2024-03-25T00:37:52;18.38;;;4.65;;
18752;SDS011;9505;50.882;5.350;2024-03-25T00:40:18;24.38;;;5.82;;
18752;SDS011;9505;50.882;5.350;2024-03-25T00:42:45;19.65;;;6.22;;
18752;SDS011;9505;50.882;5.350;2024-03-25T00:45:11;30.77;;;7.28;;
18752;SDS011;9505;50.882;5.350;2024-03-25T00:47:37;25.27;;;6.13;;
18752;SDS011;9505;50.882;5.350;2024-03-25T00:50:02;31.38;;;5.93;;
18752;SDS011;9505;50.882;5.350;2024-03-25T00:52:29;34.65;;;6.93;;
18752;SDS011;9505;50.882;5.350;2024-03-25T00:54:55;25.20;;;5.50;;
18752;SDS011;9505;50.882;5.350;2024-03-25T00:57:20;24.15;;;5.97;;
18752;SDS011;9505;50.882;5.350;2024-03-25T00:59:46;30.10;;;6.57;;
18752;SDS011;9505;50.882;5.350;2024-03-25T01:02:12;32.45;;;6.18;;
18752;SDS011;9505;50.882;5.350;2024-03-25T01:04:37;26.20;;;9.27;;
18752;SDS011;9505;50.882;5.350;2024-03-25T01:07:03;23.42;;;6.55;;
18752;SDS011;9505;50.882;5.350;2024-03-25T01:09:28;32.28;;;6.28;;
18752;SDS011;9505;50.882;5.350;2024-03-25T01:11:55;24.92;;;5.90;;
18752;SDS011;9505;50.882;5.350;2024-03-25T01:14:20;25.17;;;5.93;;
18752;SDS011;9505;50.882;5.350;2024-03-25T01:16:46;26.55;;;6.18;;
18752;SDS011;9505;50.882;5.350;2024-03-25T01:19:12;30.58;;;6.07;;
18752;SDS011;9505;50.882;5.350;2024-03-25T01:21:38;20.60;;;5.47;;
18752;SDS011;9505;50.882;5.350;2024-03-25T01:24:03;34.42;;;6.18;;
18752;SDS011;9505;50.882;5.350;2024-03-25T01:26:29;20.50;;;5.00;;
18752;SDS011;9505;50.882;5.350;2024-03-25T01:28:55;29.10;;;6.18;;
18752;SDS011;9505;50.882;5.350;2024-03-25T01:31:21;26.77;;;6.13;;
18752;SDS011;9505;50.882;5.350;2024-03-25T01:33:46;27.77;;;5.50;;
18752;SDS011;9505;50.882;5.350;2024-03-25T01:36:12;21.23;;;5.43;;
18752;SDS011;9505;50.882;5.350;2024-03-25T01:38:42;32.42;;;11.55;;
18752;SDS011;9505;50.882;5.350;2024-03-25T01:41:12;27.50;;;6.40;;
18752;SDS011;9505;50.882;5.350;2024-03-25T01:43:40;27.05;;;6.30;;
18752;SDS011;9505;50.882;5.350;2024-03-25T01:46:06;20.67;;;5.47;;
18752;SDS011;9505;50.882;5.350;2024-03-25T01:48:32;22.30;;;5.47;;
18752;SDS011;9505;50.882;5.350;2024-03-25T01:50:58;24.17;;;5.50;;
18752;SDS011;9505;50.882;5.350;2024-03-25T01:53:27;23.48;;;6.15;;
18752;SDS011;9505;50.882;5.350;2024-03-25T01:55:54;27.83;;;6.13;;
18752;SDS011;9505;50.882;5.350;2024-03-25T01:58:22;38.90;;;6.63;;
18752;SDS011;9505;50.882;5.350;2024-03-25T02:00:48;28.80;;;5.40;;
18752;SDS011;9505;50.882;5.350;2024-03-25T02:03:15;23.67;;;5.47;;
18752;SDS011;9505;50.882;5.350;2024-03-25T02:05:41;27.52;;;5.32;;
18752;SDS011;9505;50.882;5.350;2024-03-25T02:08:07;21.45;;;5.28;;
18752;SDS011;9505;50.882;5.350;2024-03-25T02:10:35;22.42;;;5.22;;
18752;SDS011;9505;50.882;5.350;2024-03-25T02:13:02;27.48;;;5.43;;
18752;SDS011;9505;50.882;5.350;2024-03-25T02:15:28;20.15;;;5.03;;
18752;SDS011;9505;50.882;5.350;2024-03-25T02:17:54;22.85;;;5.30;;
18752;SDS011;9505;50.882;5.350;2024-03-25T02:20:20;37.72;;;6.20;;
18752;SDS011;9505;50.882;5.350;2024-03-25T02:22:47;25.50;;;5.60;;
18752;SDS011;9505;50.882;5.350;2024-03-25T02:25:12;29.23;;;5.57;;
18752;SDS011;9505;50.882;5.350;2024-03-25T02:27:41;25.33;;;5.20;;
18752;SDS011;9505;50.882;5.350;2024-03-25T02:30:10;27.02;;;6.53;;
18752;SDS011;9505;50.882;5.350;2024-03-25T02:32:40;29.15;;;6.70;;
18752;SDS011;9505;50.882;5.350;2024-03-25T02:35:10;17.95;;;6.78;;
18752;SDS011;9505;50.882;5.350;2024-03-25T02:37:40;27.58;;;4.80;;
18752;SDS011;9505;50.882;5.350;2024-03-25T02:40:06;19.90;;;8.85;;
18752;SDS011;9505;50.882;5.350;2024-03-25T02:42:34;16.05;;;5.45;;
18752;SDS011;9505;50.882;5.350;2024-03-25T02:45:01;17.92;;;4.90;;
18752;SDS011;9505;50.882;5.350;2024-03-25T02:47:27;24.20;;;3.90;;
18752;SDS011;9505;50.882;5.350;2024-03-25T02:49:53;13.77;;;3.88;;
18752;SDS011;9505;50.882;5.350;2024-03-25T02:52:19;25.10;;;4.45;;
18752;SDS011;9505;50.882;5.350;2024-03-25T02:54:46;14.48;;;4.15;;
18752;SDS011;9505;50.882;5.350;2024-03-25T02:57:11;21.88;;;4.55;;
18752;SDS011;9505;50.882;5.350;2024-03-25T02:59:37;16.00;;;4.47;;
18752;SDS011;9505;50.882;5.350;2024-03-25T03:02:03;15.23;;;4.47;;
18752;SDS011;9505;50.882;5.350;2024-03-25T03:04:28;26.30;;;4.78;;
18752;SDS011;9505;50.882;5.350;2024-03-25T03:06:54;15.57;;;4.38;;
18752;SDS011;9505;50.882;5.350;2024-03-25T03:09:20;17.90;;;4.82;;
18752;SDS011;9505;50.882;5.350;2024-03-25T03:11:46;15.25;;;3.95;;
18752;SDS011;9505;50.882;5.350;2024-03-25T03:14:12;16.08;;;4.35;;
18752;SDS011;9505;50.882;5.350;2024-03-25T03:16:37;18.73;;;4.72;;
18752;SDS011;9505;50.882;5.350;2024-03-25T03:19:03;19.38;;;4.43;;
18752;SDS011;9505;50.882;5.350;2024-03-25T03:21:29;25.27;;;4.82;;
18752;SDS011;9505;50.882;5.350;2024-03-25T03:23:55;19.20;;;4.15;;
18752;SDS011;9505;50.882;5.350;2024-03-25T03:26:21;19.90;;;4.55;;
18752;SDS011;9505;50.882;5.350;2024-03-25T03:28:51;15.32;;;4.55;;
18752;SDS011;9505;50.882;5.350;2024-03-25T03:31:20;17.83;;;4.35;;
18752;SDS011;9505;50.882;5.350;2024-03-25T03:33:49;23.83;;;5.53;;
18752;SDS011;9505;50.882;5.350;2024-03-25T03:36:19;16.85;;;4.45;;
18752;SDS011;9505;50.882;5.350;2024-03-25T03:38:46;25.70;;;5.70;;
18752;SDS011;9505;50.882;5.350;2024-03-25T03:41:12;19.20;;;4.90;;
18752;SDS011;9505;50.882;5.350;2024-03-25T03:43:38;30.02;;;6.28;;
18752;SDS011;9505;50.882;5.350;2024-03-25T03:46:04;34.92;;;9.40;;
18752;SDS011;9505;50.882;5.350;2024-03-25T03:48:30;28.27;;;5.70;;
18752;SDS011;9505;50.882;5.350;2024-03-25T03:50:55;18.70;;;5.20;;
18752;SDS011;9505;50.882;5.350;2024-03-25T03:53:21;22.73;;;5.53;;
18752;SDS011;9505;50.882;5.350;2024-03-25T03:55:54;21.58;;;4.70;;
18752;SDS011;9505;50.882;5.350;2024-03-25T03:58:19;23.63;;;4.70;;
18752;SDS011;9505;50.882;5.350;2024-03-25T04:00:46;18.33;;;4.35;;
18752;SDS011;9505;50.882;5.350;2024-03-25T04:03:11;27.23;;;5.18;;
18752;SDS011;9505;50.882;5.350;2024-03-25T04:05:37;26.38;;;4.97;;
18752;SDS011;9505;50.882;5.350;2024-03-25T04:08:02;18.17;;;4.32;;
18752;SDS011;9505;50.882;5.350;2024-03-25T04:10:28;19.88;;;5.35;;
18752;SDS011;9505;50.882;5.350;2024-03-25T04:12:54;24.85;;;4.72;;
18752;SDS011;9505;50.882;5.350;2024-03-25T04:15:20;13.40;;;4.30;;
18752;SDS011;9505;50.882;5.350;2024-03-25T04:17:47;37.25;;;5.35;;
18752;SDS011;9505;50.882;5.350;2024-03-25T04:20:15;22.00;;;6.20;;
18752;SDS011;9505;50.882;5.350;2024-03-25T04:22:41;19.13;;;7.53;;
18752;SDS011;9505;50.882;5.350;2024-03-25T04:25:10;21.48;;;8.45;;
18752;SDS011;9505;50.882;5.350;2024-03-25T04:27:43;22.50;;;5.28;;
18752;SDS011;9505;50.882;5.350;2024-03-25T04:30:09;18.30;;;4.82;;
18752;SDS011;9505;50.882;5.350;2024-03-25T04:32:37;21.23;;;4.72;;
18752;SDS011;9505;50.882;5.350;2024-03-25T04:35:04;21.67;;;5.13;;
18752;SDS011;9505;50.882;5.350;2024-03-25T04:37:31;20.80;;;4.32;;
18752;SDS011;9505;50.882;5.350;2024-03-25T04:39:57;24.23;;;4.80;;
18752;SDS011;9505;50.882;5.350;2024-03-25T04:42:23;20.38;;;4.68;;
18752;SDS011;9505;50.882;5.350;2024-03-25T04:44:51;23.65;;;4.70;;
18752;SDS011;9505;50.882;5.350;2024-03-25T04:47:17;26.80;;;4.97;;
18752;SDS011;9505;50.882;5.350;2024-03-25T04:49:43;14.77;;;4.00;;
18752;SDS011;9505;50.882;5.350;2024-03-25T04:52:12;23.27;;;4.50;;
18752;SDS011;9505;50.882;5.350;2024-03-25T04:54:48;21.42;;;5.00;;
18752;SDS011;9505;50.882;5.350;2024-03-25T04:57:14;15.15;;;4.13;;
18752;SDS011;9505;50.882;5.350;2024-03-25T04:59:39;20.67;;;5.22;;
18752;SDS011;9505;50.882;5.350;2024-03-25T05:02:05;14.32;;;4.60;;
18752;SDS011;9505;50.882;5.350;2024-03-25T05:04:31;20.10;;;5.07;;
18752;SDS011;9505;50.882;5.350;2024-03-25T05:06:56;27.15;;;4.75;;
18752;SDS011;9505;50.882;5.350;2024-03-25T05:09:22;25.23;;;4.50;;
18752;SDS011;9505;50.882;5.350;2024-03-25T05:11:48;21.67;;;5.32;;
18752;SDS011;9505;50.882;5.350;2024-03-25T05:14:13;21.27;;;4.90;;
18752;SDS011;9505;50.882;5.350;2024-03-25T05:16:39;16.40;;;5.35;;
18752;SDS011;9505;50.882;5.350;2024-03-25T05:19:05;14.73;;;5.35;;
18752;SDS011;9505;50.882;5.350;2024-03-25T05:21:31;20.15;;;4.80;;
18752;SDS011;9505;50.882;5.350;2024-03-25T05:23:57;16.35;;;4.60;;
18752;SDS011;9505;50.882;5.350;2024-03-25T05:26:22;19.92;;;4.90;;
18752;SDS011;9505;50.882;5.350;2024-03-25T05:28:57;20.58;;;4.88;;
18752;SDS011;9505;50.882;5.350;2024-03-25T05:31:23;25.52;;;5.60;;
18752;SDS011;9505;50.882;5.350;2024-03-25T05:33:49;33.60;;;6.38;;
18752;SDS011;9505;50.882;5.350;2024-03-25T05:36:15;34.85;;;6.70;;
18752;SDS011;9505;50.882;5.350;2024-03-25T05:38:41;26.70;;;5.82;;
18752;SDS011;9505;50.882;5.350;2024-03-25T05:41:07;22.75;;;5.65;;
18752;SDS011;9505;50.882;5.350;2024-03-25T05:43:36;30.75;;;7.45;;
18752;SDS011;9505;50.882;5.350;2024-03-25T05:46:03;21.65;;;6.05;;
18752;SDS011;9505;50.882;5.350;2024-03-25T05:48:29;26.30;;;5.97;;
18752;SDS011;9505;50.882;5.350;2024-03-25T05:53:30;27.77;;;6.13;;
18752;SDS011;9505;50.882;5.350;2024-03-25T05:55:56;26.88;;;6.50;;
18752;SDS011;9505;50.882;5.350;2024-03-25T05:58:24;33.58;;;6.68;;
18752;SDS011;9505;50.882;5.350;2024-03-25T06:00:50;37.38;;;7.47;;
18752;SDS011;9505;50.882;5.350;2024-03-25T06:03:18;32.92;;;7.90;;
18752;SDS011;9505;50.882;5.350;2024-03-25T06:05:44;30.15;;;7.97;;
18752;SDS011;9505;50.882;5.350;2024-03-25T06:08:09;26.80;;;7.22;;
18752;SDS011;9505;50.882;5.350;2024-03-25T06:10:49;33.45;;;7.22;;
18752;SDS011;9505;50.882;5.350;2024-03-25T06:13:18;36.10;;;8.25;;
18752;SDS011;9505;50.882;5.350;2024-03-25T06:15:44;44.25;;;8.68;;
18752;SDS011;9505;50.882;5.350;2024-03-25T06:18:10;39.25;;;8.30;;
18752;SDS011;9505;50.882;5.350;2024-03-25T06:20:36;40.72;;;8.48;;
18752;SDS011;9505;50.882;5.350;2024-03-25T06:23:02;31.33;;;8.57;;
18752;SDS011;9505;50.882;5.350;2024-03-25T06:25:28;31.27;;;7.65;;
18752;SDS011;9505;50.882;5.350;2024-03-25T06:27:54;38.75;;;9.00;;
18752;SDS011;9505;50.882;5.350;2024-03-25T06:30:20;27.63;;;7.90;;
18752;SDS011;9505;50.882;5.350;2024-03-25T06:33:04;31.35;;;8.10;;
18752;SDS011;9505;50.882;5.350;2024-03-25T06:35:48;37.50;;;8.88;;
18752;SDS011;9505;50.882;5.350;2024-03-25T06:38:14;29.60;;;8.68;;
18752;SDS011;9505;50.882;5.350;2024-03-25T06:40:40;63.92;;;11.18;;
18752;SDS011;9505;50.882;5.350;2024-03-25T06:43:05;38.47;;;10.73;;
18752;SDS011;9505;50.882;5.350;2024-03-25T06:45:31;39.35;;;10.15;;
18752;SDS011;9505;50.882;5.350;2024-03-25T06:47:57;52.70;;;11.20;;
18752;SDS011;9505;50.882;5.350;2024-03-25T06:50:23;44.83;;;10.13;;
18752;SDS011;9505;50.882;5.350;2024-03-25T06:52:48;56.90;;;11.45;;
18752;SDS011;9505;50.882;5.350;2024-03-25T06:55:14;46.75;;;11.13;;
18752;SDS011;9505;50.882;5.350;2024-03-25T06:57:40;60.97;;;11.80;;
18752;SDS011;9505;50.882;5.350;2024-03-25T07:00:06;56.30;;;11.68;;
18752;SDS011;9505;50.882;5.350;2024-03-25T07:02:37;76.70;;;13.27;;
18752;SDS011;9505;50.882;5.350;2024-03-25T07:05:06;52.10;;;12.38;;
18752;SDS011;9505;50.882;5.350;2024-03-25T07:07:32;74.72;;;14.15;;
18752;SDS011;9505;50.882;5.350;2024-03-25T07:09:59;66.45;;;14.75;;
18752;SDS011;9505;50.882;5.350;2024-03-25T07:12:28;68.88;;;13.30;;
18752;SDS011;9505;50.882;5.350;2024-03-25T07:14:53;77.53;;;13.57;;
18752;SDS011;9505;50.882;5.350;2024-03-25T07:17:19;128.70;;;18.63;;
18752;SDS011;9505;50.882;5.350;2024-03-25T07:19:46;61.10;;;12.82;;
18752;SDS011;9505;50.882;5.350;2024-03-25T07:22:12;59.25;;;14.00;;
18752;SDS011;9505;50.882;5.350;2024-03-25T07:24:38;66.22;;;13.30;;
18752;SDS011;9505;50.882;5.350;2024-03-25T07:27:03;61.33;;;13.02;;
18752;SDS011;9505;50.882;5.350;2024-03-25T07:29:30;69.95;;;13.45;;
18752;SDS011;9505;50.882;5.350;2024-03-25T07:31:56;72.05;;;14.30;;
18752;SDS011;9505;50.882;5.350;2024-03-25T07:34:21;46.80;;;11.88;;
18752;SDS011;9505;50.882;5.350;2024-03-25T07:36:47;67.22;;;12.98;;
18752;SDS011;9505;50.882;5.350;2024-03-25T07:39:14;53.92;;;12.10;;
18752;SDS011;9505;50.882;5.350;2024-03-25T07:41:39;52.88;;;12.13;;
18752;SDS011;9505;50.882;5.350;2024-03-25T07:44:05;42.10;;;11.45;;
18752;SDS011;9505;50.882;5.350;2024-03-25T07:46:31;55.17;;;11.70;;
18752;SDS011;9505;50.882;5.350;2024-03-25T07:48:56;58.05;;;12.70;;
18752;SDS011;9505;50.882;5.350;2024-03-25T07:51:22;44.20;;;10.80;;
18752;SDS011;9505;50.882;5.350;2024-03-25T07:53:48;48.83;;;11.27;;
18752;SDS011;9505;50.882;5.350;2024-03-25T07:56:17;45.95;;;9.75;;
18752;SDS011;9505;50.882;5.350;2024-03-25T07:58:42;39.45;;;8.57;;
18752;SDS011;9505;50.882;5.350;2024-03-25T08:01:08;35.90;;;9.15;;
18752;SDS011;9505;50.882;5.350;2024-03-25T08:03:34;37.95;;;8.27;;
18752;SDS011;9505;50.882;5.350;2024-03-25T08:05:59;33.50;;;7.10;;
18752;SDS011;9505;50.882;5.350;2024-03-25T08:08:25;25.83;;;6.38;;
18752;SDS011;9505;50.882;5.350;2024-03-25T08:10:51;31.33;;;6.28;;
18752;SDS011;9505;50.882;5.350;2024-03-25T08:13:17;34.45;;;6.40;;
18752;SDS011;9505;50.882;5.350;2024-03-25T08:15:45;36.33;;;6.57;;
18752;SDS011;9505;50.882;5.350;2024-03-25T08:18:10;26.50;;;6.00;;
18752;SDS011;9505;50.882;5.350;2024-03-25T08:20:37;29.70;;;5.80;;
18752;SDS011;9505;50.882;5.350;2024-03-25T08:23:03;38.95;;;6.40;;
18752;SDS011;9505;50.882;5.350;2024-03-25T08:25:28;30.70;;;5.97;;
18752;SDS011;9505;50.882;5.350;2024-03-25T08:27:54;36.95;;;6.65;;
18752;SDS011;9505;50.882;5.350;2024-03-25T08:30:19;39.50;;;6.20;;
18752;SDS011;9505;50.882;5.350;2024-03-25T08:32:45;33.33;;;5.85;;
18752;SDS011;9505;50.882;5.350;2024-03-25T08:35:11;33.63;;;6.35;;
18752;SDS011;9505;50.882;5.350;2024-03-25T08:37:37;48.88;;;6.63;;
18752;SDS011;9505;50.882;5.350;2024-03-25T08:40:03;34.15;;;5.95;;
18752;SDS011;9505;50.882;5.350;2024-03-25T08:42:30;43.05;;;6.75;;
18752;SDS011;9505;50.882;5.350;2024-03-25T08:44:55;33.53;;;6.00;;
18752;SDS011;9505;50.882;5.350;2024-03-25T08:47:21;33.60;;;5.85;;
18752;SDS011;9505;50.882;5.350;2024-03-25T08:49:46;34.33;;;5.63;;
18752;SDS011;9505;50.882;5.350;2024-03-25T08:52:12;45.38;;;7.20;;
18752;SDS011;9505;50.882;5.350;2024-03-25T08:54:38;40.78;;;6.45;;
18752;SDS011;9505;50.882;5.350;2024-03-25T08:57:03;37.30;;;6.50;;
18752;SDS011;9505;50.882;5.350;2024-03-25T08:59:29;23.30;;;4.97;;
18752;SDS011;9505;50.882;5.350;2024-03-25T09:01:55;35.28;;;6.57;;
18752;SDS011;9505;50.882;5.350;2024-03-25T09:04:20;37.13;;;6.55;;
18752;SDS011;9505;50.882;5.350;2024-03-25T09:06:46;184.63;;;16.52;;
18752;SDS011;9505;50.882;5.350;2024-03-25T09:09:12;53.05;;;7.20;;
18752;SDS011;9505;50.882;5.350;2024-03-25T09:11:57;90.72;;;11.63;;
18752;SDS011;9505;50.882;5.350;2024-03-25T09:14:22;81.15;;;9.23;;
18752;SDS011;9505;50.882;5.350;2024-03-25T09:16:48;32.38;;;5.78;;
18752;SDS011;9505;50.882;5.350;2024-03-25T09:19:13;37.95;;;6.20;;
18752;SDS011;9505;50.882;5.350;2024-03-25T09:21:39;72.85;;;8.70;;
18752;SDS011;9505;50.882;5.350;2024-03-25T09:24:05;90.78;;;9.65;;
18752;SDS011;9505;50.882;5.350;2024-03-25T09:26:31;44.97;;;6.18;;
18752;SDS011;9505;50.882;5.350;2024-03-25T09:28:56;37.58;;;6.60;;
18752;SDS011;9505;50.882;5.350;2024-03-25T09:31:22;82.78;;;9.30;;
18752;SDS011;9505;50.882;5.350;2024-03-25T09:33:47;64.47;;;7.90;;
18752;SDS011;9505;50.882;5.350;2024-03-25T09:36:13;73.05;;;9.32;;
18752;SDS011;9505;50.882;5.350;2024-03-25T09:38:39;30.63;;;5.30;;
18752;SDS011;9505;50.882;5.350;2024-03-25T09:41:05;44.78;;;6.55;;
18752;SDS011;9505;50.882;5.350;2024-03-25T09:43:40;91.50;;;10.02;;
18752;SDS011;9505;50.882;5.350;2024-03-25T09:46:13;47.55;;;6.65;;
18752;SDS011;9505;50.882;5.350;2024-03-25T09:48:39;83.70;;;9.35;;
18752;SDS011;9505;50.882;5.350;2024-03-25T09:51:06;88.38;;;9.70;;
18752;SDS011;9505;50.882;5.350;2024-03-25T09:53:34;79.15;;;8.68;;
18752;SDS011;9505;50.882;5.350;2024-03-25T09:55:59;32.88;;;5.40;;
18752;SDS011;9505;50.882;5.350;2024-03-25T09:58:25;33.85;;;5.90;;
18752;SDS011;9505;50.882;5.350;2024-03-25T10:00:52;59.15;;;7.80;;
18752;SDS011;9505;50.882;5.350;2024-03-25T10:03:18;68.40;;;8.85;;
18752;SDS011;9505;50.882;5.350;2024-03-25T10:05:43;57.30;;;7.90;;
18752;SDS011;9505;50.882;5.350;2024-03-25T10:08:09;43.90;;;6.30;;
18752;SDS011;9505;50.882;5.350;2024-03-25T10:10:35;37.33;;;6.18;;
18752;SDS011;9505;50.882;5.350;2024-03-25T10:13:02;83.15;;;9.07;;
18752;SDS011;9505;50.882;5.350;2024-03-25T10:15:32;73.78;;;8.02;;
18752;SDS011;9505;50.882;5.350;2024-03-25T10:17:58;74.35;;;8.05;;
18752;SDS011;9505;50.882;5.350;2024-03-25T10:20:24;31.30;;;5.68;;
18752;SDS011;9505;50.882;5.350;2024-03-25T10:22:50;21.70;;;4.95;;
18752;SDS011;9505;50.882;5.350;2024-03-25T10:25:23;74.88;;;8.68;;
18752;SDS011;9505;50.882;5.350;2024-03-25T10:27:55;36.40;;;6.25;;
18752;SDS011;9505;50.882;5.350;2024-03-25T10:30:28;20.83;;;4.38;;
18752;SDS011;9505;50.882;5.350;2024-03-25T10:32:58;76.07;;;8.43;;
18752;SDS011;9505;50.882;5.350;2024-03-25T10:35:28;41.95;;;6.03;;
18752;SDS011;9505;50.882;5.350;2024-03-25T10:37:58;73.07;;;8.98;;
18752;SDS011;9505;50.882;5.350;2024-03-25T10:40:36;37.70;;;6.00;;
18752;SDS011;9505;50.882;5.350;2024-03-25T10:46:06;63.85;;;7.93;;
18752;SDS011;9505;50.882;5.350;2024-03-25T10:48:26;93.45;;;10.07;;
18752;SDS011;9505;50.882;5.350;2024-03-25T10:50:56;32.45;;;4.93;;
18752;SDS011;9505;50.882;5.350;2024-03-25T10:53:25;24.80;;;4.43;;
18752;SDS011;9505;50.882;5.350;2024-03-25T10:55:54;21.85;;;4.65;;
18752;SDS011;9505;50.882;5.350;2024-03-25T10:58:21;28.13;;;4.70;;
18752;SDS011;9505;50.882;5.350;2024-03-25T11:00:51;75.10;;;8.20;;
18752;SDS011;9505;50.882;5.350;2024-03-25T11:03:23;75.75;;;7.88;;
18752;SDS011;9505;50.882;5.350;2024-03-25T11:05:49;70.80;;;7.35;;
18752;SDS011;9505;50.882;5.350;2024-03-25T11:08:15;114.35;;;9.90;;
18752;SDS011;9505;50.882;5.350;2024-03-25T11:10:43;31.42;;;4.53;;
18752;SDS011;9505;50.882;5.350;2024-03-25T11:13:10;25.17;;;3.67;;
18752;SDS011;9505;50.882;5.350;2024-03-25T11:15:42;21.10;;;3.33;;
18752;SDS011;9505;50.882;5.350;2024-03-25T11:18:13;29.10;;;3.95;;
18752;SDS011;9505;50.882;5.350;2024-03-25T11:20:39;32.75;;;3.92;;
18752;SDS011;9505;50.882;5.350;2024-03-25T11:23:11;73.43;;;6.93;;
18752;SDS011;9505;50.882;5.350;2024-03-25T11:25:38;75.45;;;6.70;;
18752;SDS011;9505;50.882;5.350;2024-03-25T11:28:05;74.63;;;6.97;;
18752;SDS011;9505;50.882;5.350;2024-03-25T11:30:32;57.67;;;6.15;;
18752;SDS011;9505;50.882;5.350;2024-03-25T11:33:00;19.00;;;3.28;;
18752;SDS011;9505;50.882;5.350;2024-03-25T11:35:27;35.65;;;4.20;;
18752;SDS011;9505;50.882;5.350;2024-03-25T11:37:53;55.70;;;5.65;;
18752;SDS011;9505;50.882;5.350;2024-03-25T11:40:19;29.95;;;4.53;;
18752;SDS011;9505;50.882;5.350;2024-03-25T11:42:45;24.00;;;3.58;;
18752;SDS011;9505;50.882;5.350;2024-03-25T11:45:17;60.25;;;6.07;;
18752;SDS011;9505;50.882;5.350;2024-03-25T11:47:45;70.05;;;6.78;;
18752;SDS011;9505;50.882;5.350;2024-03-25T11:50:13;75.50;;;7.10;;
18752;SDS011;9505;50.882;5.350;2024-03-25T11:52:40;69.07;;;6.22;;
18752;SDS011;9505;50.882;5.350;2024-03-25T11:55:06;38.38;;;4.35;;
18752;SDS011;9505;50.882;5.350;2024-03-25T11:57:37;23.85;;;2.85;;
18752;SDS011;9505;50.882;5.350;2024-03-25T12:00:04;15.82;;;2.38;;
18752;SDS011;9505;50.882;5.350;2024-03-25T12:02:31;48.42;;;4.72;;
18752;SDS011;9505;50.882;5.350;2024-03-25T12:04:57;56.42;;;5.25;;
18752;SDS011;9505;50.882;5.350;2024-03-25T12:07:23;58.80;;;5.45;;
18752;SDS011;9505;50.882;5.350;2024-03-25T12:09:48;39.85;;;4.28;;
18752;SDS011;9505;50.882;5.350;2024-03-25T12:12:33;69.10;;;5.85;;
18752;SDS011;9505;50.882;5.350;2024-03-25T12:15:00;59.90;;;5.55;;
18752;SDS011;9505;50.882;5.350;2024-03-25T12:17:28;71.68;;;6.43;;
18752;SDS011;9505;50.882;5.350;2024-03-25T12:22:29;61.80;;;5.57;;
18752;SDS011;9505;50.882;5.350;2024-03-25T12:25:02;21.67;;;2.58;;
18752;SDS011;9505;50.882;5.350;2024-03-25T12:27:31;46.20;;;4.38;;
18752;SDS011;9505;50.882;5.350;2024-03-25T12:29:58;20.00;;;2.45;;
18752;SDS011;9505;50.882;5.350;2024-03-25T12:32:30;27.33;;;3.28;;
18752;SDS011;9505;50.882;5.350;2024-03-25T12:35:10;44.05;;;4.38;;
18752;SDS011;9505;50.882;5.350;2024-03-25T12:37:40;28.48;;;3.35;;
18752;SDS011;9505;50.882;5.350;2024-03-25T12:40:07;22.42;;;2.80;;
18752;SDS011;9505;50.882;5.350;2024-03-25T12:42:35;19.10;;;2.17;;
18752;SDS011;9505;50.882;5.350;2024-03-25T12:45:02;53.00;;;5.32;;
18752;SDS011;9505;50.882;5.350;2024-03-25T12:47:29;51.45;;;5.72;;
18752;SDS011;9505;50.882;5.350;2024-03-25T12:49:55;25.52;;;3.10;;
18752;SDS011;9505;50.882;5.350;2024-03-25T12:52:21;17.60;;;2.53;;
18752;SDS011;9505;50.882;5.350;2024-03-25T12:54:46;10.15;;;1.85;;
18752;SDS011;9505;50.882;5.350;2024-03-25T12:57:12;30.83;;;3.47;;
18752;SDS011;9505;50.882;5.350;2024-03-25T12:59:38;16.70;;;2.75;;
18752;SDS011;9505;50.882;5.350;2024-03-25T13:02:04;16.20;;;2.53;;
18752;SDS011;9505;50.882;5.350;2024-03-25T13:04:30;28.63;;;3.25;;
18752;SDS011;9505;50.882;5.350;2024-03-25T13:06:55;13.90;;;2.35;;
18752;SDS011;9505;50.882;5.350;2024-03-25T13:09:21;16.00;;;2.47;;
18752;SDS011;9505;50.882;5.350;2024-03-25T13:11:47;22.33;;;3.22;;
18752;SDS011;9505;50.882;5.350;2024-03-25T13:14:13;12.15;;;2.08;;
18752;SDS011;9505;50.882;5.350;2024-03-25T13:16:40;20.33;;;2.78;;
18752;SDS011;9505;50.882;5.350;2024-03-25T13:19:06;19.77;;;2.80;;
18752;SDS011;9505;50.882;5.350;2024-03-25T13:21:32;19.95;;;2.80;;
18752;SDS011;9505;50.882;5.350;2024-03-25T13:23:58;15.27;;;2.63;;
18752;SDS011;9505;50.882;5.350;2024-03-25T13:26:24;12.52;;;1.95;;
18752;SDS011;9505;50.882;5.350;2024-03-25T13:28:50;17.30;;;2.22;;
18752;SDS011;9505;50.882;5.350;2024-03-25T13:31:16;25.45;;;3.38;;
18752;SDS011;9505;50.882;5.350;2024-03-25T13:33:42;16.77;;;2.42;;
18752;SDS011;9505;50.882;5.350;2024-03-25T13:36:08;23.40;;;2.95;;
18752;SDS011;9505;50.882;5.350;2024-03-25T13:38:33;19.98;;;2.60;;
18752;SDS011;9505;50.882;5.350;2024-03-25T13:40:59;23.95;;;3.10;;
18752;SDS011;9505;50.882;5.350;2024-03-25T13:43:26;15.27;;;2.47;;
18752;SDS011;9505;50.882;5.350;2024-03-25T13:45:52;13.43;;;2.13;;
18752;SDS011;9505;50.882;5.350;2024-03-25T13:48:17;25.10;;;3.22;;
18752;SDS011;9505;50.882;5.350;2024-03-25T13:50:43;21.40;;;2.45;;
18752;SDS011;9505;50.882;5.350;2024-03-25T13:53:09;18.98;;;2.83;;
18752;SDS011;9505;50.882;5.350;2024-03-25T13:55:35;22.33;;;2.80;;
18752;SDS011;9505;50.882;5.350;2024-03-25T13:58:01;8.98;;;2.05;;
18752;SDS011;9505;50.882;5.350;2024-03-25T14:00:27;15.70;;;2.47;;
18752;SDS011;9505;50.882;5.350;2024-03-25T14:02:56;10.35;;;2.17;;
18752;SDS011;9505;50.882;5.350;2024-03-25T14:05:21;12.68;;;2.15;;
18752;SDS011;9505;50.882;5.350;2024-03-25T14:07:50;18.10;;;2.85;;
18752;SDS011;9505;50.882;5.350;2024-03-25T14:10:16;16.33;;;2.63;;
18752;SDS011;9505;50.882;5.350;2024-03-25T14:12:42;18.98;;;2.47;;
18752;SDS011;9505;50.882;5.350;2024-03-25T14:15:08;12.68;;;2.50;;
18752;SDS011;9505;50.882;5.350;2024-03-25T14:17:34;22.63;;;3.05;;
18752;SDS011;9505;50.882;5.350;2024-03-25T14:20:00;10.95;;;1.85;;
18752;SDS011;9505;50.882;5.350;2024-03-25T14:22:26;24.70;;;3.20;;
18752;SDS011;9505;50.882;5.350;2024-03-25T14:24:52;17.38;;;3.03;;
18752;SDS011;9505;50.882;5.350;2024-03-25T14:27:22;18.95;;;2.70;;
18752;SDS011;9505;50.882;5.350;2024-03-25T14:29:48;21.95;;;2.95;;
18752;SDS011;9505;50.882;5.350;2024-03-25T14:32:14;23.60;;;3.10;;
18752;SDS011;9505;50.882;5.350;2024-03-25T14:34:39;17.48;;;2.50;;
18752;SDS011;9505;50.882;5.350;2024-03-25T14:37:05;44.67;;;4.50;;
18752;SDS011;9505;50.882;5.350;2024-03-25T14:39:31;37.60;;;4.03;;
18752;SDS011;9505;50.882;5.350;2024-03-25T14:41:56;67.88;;;6.30;;
18752;SDS011;9505;50.882;5.350;2024-03-25T14:44:22;72.00;;;6.78;;
18752;SDS011;9505;50.882;5.350;2024-03-25T14:46:48;45.30;;;4.85;;
18752;SDS011;9505;50.882;5.350;2024-03-25T14:49:13;10.93;;;1.98;;
18752;SDS011;9505;50.882;5.350;2024-03-25T14:51:39;38.00;;;4.53;;